KGRR/GRR METAR and TAF weather

Enter ICAO airport designator
Station Type Date Time Source
KGRR METAR 2021/01/17 18:53 UTC NOAA

KGRR 171853Z 26005KT 2SM -SN BR BKN011 BKN018 OVC042 02/00 A2964 RMK AO2 SLP044 P0001 T00220000 $


Station Type Date Time Source
KGRR Decoded METAR 2021/01/17 18:53 UTC NOAA

GERALD R. FORD INTERNATIONAL, MI, United States (KGRR) 42-53N 085-31W 239M
Jan 17, 2021 - 01:53 PM EST / 2021.01.17 1853 UTC
Wind: from the W (260 degrees) at 6 MPH (5 KT):0
Visibility: 2 mile(s):0
Sky conditions: overcast
Weather: light snow; mist
Precipitation last hour: 0.01 inches
Temperature: 36.0 F (2.2 C)
Dew Point: 32.0 F (0.0 C)
Relative Humidity: 85%
Pressure (altimeter): 29.64 in. Hg (1003 hPa)
ob: KGRR 171853Z 26005KT 2SM -SN BR BKN011 BKN018 OVC042 02/00 A2964 RMK AO2 SLP044 P0001 T00220000
cycle: 19

Station Type Date Time Source
KGRR TAF 2021/01/17 18:39 UTC NOAA

TAF KGRR 171736Z 1718/1818 28005KT 3SM -SHSN SCT008 OVC015
TEMPO 1718/1721 1SM -SHSN OVC008
FM180200 28004KT P6SM VCSH OVC025
FM180500 26005KT 2SM -SHSN OVC015
FM180800 27004KT P6SM VCSH OVC025
FM181500 26007KT 2SM -SHSN OVC015

Example: see airport list